createdAt,value
2022-10-13T00:00:35.309Z,1009.37
2022-10-13T00:01:35.238Z,1009.29
2022-10-13T00:02:35.208Z,1009.36
2022-10-13T00:03:35.178Z,1009.29
2022-10-13T00:04:35.190Z,1009.33
2022-10-13T00:05:35.168Z,1009.33
2022-10-13T00:06:35.185Z,1009.32
2022-10-13T00:07:35.205Z,1009.35
2022-10-13T00:08:35.148Z,1009.28
2022-10-13T00:09:35.135Z,1009.27
2022-10-13T00:10:35.132Z,1009.36
2022-10-13T00:11:35.135Z,1009.33
2022-10-13T00:12:35.123Z,1009.36
2022-10-13T00:13:35.108Z,1009.32
2022-10-13T00:14:35.106Z,1009.39
2022-10-13T00:15:35.095Z,1009.35
2022-10-13T00:16:35.112Z,1009.39
2022-10-13T00:17:35.105Z,1009.39
2022-10-13T00:18:35.089Z,1009.36
2022-10-13T00:19:35.084Z,1009.36
2022-10-13T00:20:35.074Z,1009.31
2022-10-13T00:21:35.070Z,1009.33
2022-10-13T00:22:35.052Z,1009.33
2022-10-13T00:23:35.062Z,1009.31
2022-10-13T00:24:35.041Z,1009.31
2022-10-13T00:25:35.023Z,1009.28
2022-10-13T00:26:35.045Z,1009.30
2022-10-13T00:27:35.016Z,1009.32
2022-10-13T00:28:35.100Z,1009.29
2022-10-13T00:29:35.002Z,1009.30
2022-10-13T00:30:35.006Z,1009.27
2022-10-13T00:31:35.103Z,1009.27
2022-10-13T00:32:34.981Z,1009.27
2022-10-13T00:33:34.973Z,1009.30
2022-10-13T00:34:34.972Z,1009.31
2022-10-13T00:35:34.956Z,1009.31
2022-10-13T00:36:34.982Z,1009.28
2022-10-13T00:37:34.951Z,1009.30
2022-10-13T00:38:34.942Z,1009.29
2022-10-13T00:39:34.931Z,1009.32
2022-10-13T00:40:34.930Z,1009.31
2022-10-13T00:41:34.929Z,1009.27
2022-10-13T00:42:34.922Z,1009.24
2022-10-13T00:43:34.908Z,1009.25
2022-10-13T00:44:34.919Z,1009.28
2022-10-13T00:45:34.925Z,1009.26
2022-10-13T00:46:35.039Z,1009.31
2022-10-13T00:47:34.877Z,1009.25
2022-10-13T00:48:34.870Z,1009.26
2022-10-13T00:49:35.266Z,1009.19
2022-10-13T00:50:34.878Z,1009.16
2022-10-13T00:51:34.878Z,1009.16
2022-10-13T00:52:34.858Z,1009.21
2022-10-13T00:53:34.843Z,1009.16
2022-10-13T00:54:34.838Z,1009.16
2022-10-13T00:55:34.827Z,1009.17
2022-10-13T00:56:34.847Z,1009.16
2022-10-13T00:57:34.816Z,1009.14
2022-10-13T00:58:34.811Z,1009.13
2022-10-13T00:59:34.798Z,1009.15
2022-10-13T01:00:34.865Z,1009.12
2022-10-13T01:01:34.805Z,1009.10
2022-10-13T01:02:34.785Z,1009.10
2022-10-13T01:03:34.776Z,1009.07
2022-10-13T01:04:34.776Z,1009.09
2022-10-13T01:05:34.754Z,1009.05
2022-10-13T01:06:34.767Z,1009.03
2022-10-13T01:07:34.737Z,1009.06
2022-10-13T01:08:34.745Z,1009.01
2022-10-13T01:09:34.744Z,1009.01
2022-10-13T01:10:34.753Z,1009.04
2022-10-13T01:11:34.706Z,1009.01
2022-10-13T01:12:34.740Z,1008.99
2022-10-13T01:13:34.703Z,1009.01
2022-10-13T01:14:34.706Z,1008.99
2022-10-13T01:15:34.713Z,1008.96
2022-10-13T01:16:34.683Z,1008.96
2022-10-13T01:17:34.673Z,1008.91
2022-10-13T01:18:34.671Z,1008.98
2022-10-13T01:19:34.663Z,1009.00
2022-10-13T01:20:34.692Z,1008.99
2022-10-13T01:21:34.651Z,1008.96
2022-10-13T01:22:34.701Z,1008.98
2022-10-13T01:23:34.680Z,1008.92
2022-10-13T01:24:35.321Z,1008.90
2022-10-13T01:25:34.651Z,1008.84
2022-10-13T01:26:35.301Z,1008.88
2022-10-13T01:27:34.601Z,1008.88
2022-10-13T01:28:35.482Z,1008.94
2022-10-13T01:29:34.590Z,1008.88
2022-10-13T01:30:34.627Z,1008.89
2022-10-13T01:31:34.621Z,1008.87
2022-10-13T01:32:34.592Z,1008.86
2022-10-13T01:33:34.559Z,1008.84
2022-10-13T01:34:34.599Z,1008.89
2022-10-13T01:35:34.549Z,1008.83
2022-10-13T01:36:34.661Z,1008.80
2022-10-13T01:37:34.541Z,1008.84
2022-10-13T01:38:34.560Z,1008.82
2022-10-13T01:39:34.535Z,1008.79
2022-10-13T01:40:34.538Z,1008.82
2022-10-13T01:41:34.527Z,1008.76
2022-10-13T01:42:34.498Z,1008.72
2022-10-13T01:43:34.514Z,1008.71
2022-10-13T01:44:34.489Z,1008.73
2022-10-13T01:45:34.498Z,1008.75
2022-10-13T01:46:34.479Z,1008.73
2022-10-13T01:47:34.467Z,1008.67
2022-10-13T01:48:34.479Z,1008.65
2022-10-13T01:49:34.454Z,1008.68
2022-10-13T01:50:34.467Z,1008.67
2022-10-13T01:51:34.437Z,1008.67
2022-10-13T01:52:34.446Z,1008.66
2022-10-13T01:53:34.426Z,1008.66
2022-10-13T01:54:34.439Z,1008.61
2022-10-13T01:55:34.485Z,1008.51
2022-10-13T01:56:34.417Z,1008.52
2022-10-13T01:57:34.396Z,1008.53
2022-10-13T01:58:34.396Z,1008.49
2022-10-13T01:59:34.435Z,1008.41
2022-10-13T02:00:34.473Z,1008.48
2022-10-13T02:01:34.393Z,1008.41
2022-10-13T02:02:34.383Z,1008.40
2022-10-13T02:03:34.362Z,1008.42
2022-10-13T02:04:34.376Z,1008.40
2022-10-13T02:05:34.365Z,1008.45
2022-10-13T02:06:34.412Z,1008.36
2022-10-13T02:07:34.334Z,1008.35
2022-10-13T02:08:34.327Z,1008.36
2022-10-13T02:09:34.314Z,1008.44
2022-10-13T02:10:34.333Z,1008.33
2022-10-13T02:11:34.312Z,1008.34
2022-10-13T02:12:34.905Z,1008.34
2022-10-13T02:13:34.303Z,1008.37
2022-10-13T02:14:34.302Z,1008.29
2022-10-13T02:15:34.331Z,1008.30
2022-10-13T02:16:34.295Z,1008.26
2022-10-13T02:17:34.294Z,1008.26
2022-10-13T02:18:34.271Z,1008.30
2022-10-13T02:19:34.252Z,1008.21
2022-10-13T02:20:34.283Z,1008.31
2022-10-13T02:21:34.241Z,1008.30
2022-10-13T02:22:34.229Z,1008.29
2022-10-13T02:23:34.231Z,1008.26
2022-10-13T02:24:34.211Z,1008.27
2022-10-13T02:25:34.210Z,1008.35
2022-10-13T02:26:34.239Z,1008.27
2022-10-13T02:27:34.196Z,1008.33
2022-10-13T02:28:34.263Z,1008.26
2022-10-13T02:29:34.190Z,1008.30
2022-10-13T02:30:34.262Z,1008.31
2022-10-13T02:31:34.190Z,1008.30
2022-10-13T02:32:34.198Z,1008.34
2022-10-13T02:33:34.158Z,1008.29
2022-10-13T02:34:34.150Z,1008.30
2022-10-13T02:35:34.158Z,1008.27
2022-10-13T02:36:34.129Z,1008.27
2022-10-13T02:37:34.128Z,1008.30
2022-10-13T02:38:34.118Z,1008.28
2022-10-13T02:39:34.118Z,1008.27
2022-10-13T02:40:34.117Z,1008.20
2022-10-13T02:41:34.104Z,1008.18
2022-10-13T02:42:34.089Z,1008.23
2022-10-13T02:43:34.173Z,1008.21
2022-10-13T02:44:34.077Z,1008.23
2022-10-13T02:45:34.097Z,1008.21
2022-10-13T02:46:34.317Z,1008.23
2022-10-13T02:47:34.326Z,1008.13
2022-10-13T02:48:34.395Z,1008.20
2022-10-13T02:49:34.406Z,1008.15
2022-10-13T02:50:34.074Z,1008.24
2022-10-13T02:51:38.948Z,1008.24
2022-10-13T02:52:34.034Z,1008.21
2022-10-13T02:53:34.034Z,1008.22
2022-10-13T02:54:34.016Z,1008.21
2022-10-13T02:55:34.027Z,1008.23
2022-10-13T02:56:34.395Z,1008.22
2022-10-13T02:57:33.997Z,1008.18
2022-10-13T02:58:33.985Z,1008.21
2022-10-13T02:59:33.984Z,1008.19
2022-10-13T03:00:34.070Z,1008.18
2022-10-13T03:01:33.966Z,1008.20
2022-10-13T03:02:34.635Z,1008.19
2022-10-13T03:03:34.643Z,1008.22
2022-10-13T03:04:33.972Z,1008.21
2022-10-13T03:05:33.962Z,1008.16
2022-10-13T03:06:33.944Z,1008.20
2022-10-13T03:07:33.932Z,1008.19
2022-10-13T03:08:33.912Z,1008.20
2022-10-13T03:09:33.933Z,1008.22
2022-10-13T03:10:33.957Z,1008.14
2022-10-13T03:11:34.529Z,1008.18
2022-10-13T03:14:00.694Z,1008.21
2022-10-13T03:15:00.838Z,1008.23
2022-10-13T03:16:00.736Z,1008.27
2022-10-13T03:17:00.699Z,1008.23
2022-10-13T03:18:00.124Z,1008.32
2022-10-13T03:18:59.854Z,1008.28
2022-10-13T03:19:59.944Z,1008.42
2022-10-13T03:20:59.841Z,1008.36
2022-10-13T03:21:59.811Z,1008.36
2022-10-13T03:23:00.772Z,1008.33
2022-10-13T03:24:00.733Z,1008.29
2022-10-13T03:25:00.642Z,1008.36
2022-10-13T03:25:59.838Z,1008.37
2022-10-13T03:26:59.812Z,1008.34
2022-10-13T03:27:59.830Z,1008.39
2022-10-13T03:29:00.776Z,1008.36
2022-10-13T03:29:59.781Z,1008.35
2022-10-13T03:30:59.781Z,1008.35
2022-10-13T03:32:00.733Z,1008.35
2022-10-13T03:32:59.822Z,1008.32
2022-10-13T03:34:00.557Z,1008.32
2022-10-13T03:34:59.785Z,1008.36
2022-10-13T03:35:59.721Z,1008.28
2022-10-13T03:37:00.513Z,1008.28
2022-10-13T03:37:59.732Z,1008.34
2022-10-13T03:39:00.574Z,1008.36
2022-10-13T03:39:59.732Z,1008.28
2022-10-13T03:40:59.703Z,1008.26
2022-10-13T03:42:00.542Z,1008.29
2022-10-13T03:43:00.100Z,1008.22
2022-10-13T03:44:00.099Z,1008.19
2022-10-13T03:44:59.658Z,1008.17
2022-10-13T03:46:00.669Z,1008.18
2022-10-13T03:47:00.577Z,1008.14
2022-10-13T03:47:59.689Z,1008.12
2022-10-13T03:48:59.990Z,1008.18
2022-10-13T03:49:59.664Z,1008.18
2022-10-13T03:51:00.451Z,1008.21
2022-10-13T03:51:59.748Z,1008.18
2022-10-13T03:52:59.617Z,1008.18
2022-10-13T03:53:59.968Z,1008.16
2022-10-13T03:55:00.019Z,1008.19
2022-10-13T03:56:00.227Z,1008.13
2022-10-13T03:57:00.245Z,1008.10
2022-10-13T03:57:59.577Z,1008.20
2022-10-13T03:59:00.004Z,1008.17
2022-10-13T04:00:00.376Z,1008.22
2022-10-13T04:01:00.428Z,1008.16
2022-10-13T04:01:59.629Z,1008.12
2022-10-13T04:02:59.565Z,1008.11
2022-10-13T04:04:00.484Z,1008.06
2022-10-13T04:05:00.385Z,1008.06
2022-10-13T04:05:59.595Z,1008.13
2022-10-13T04:06:59.555Z,1008.10
2022-10-13T04:07:59.545Z,1008.11
2022-10-13T04:08:59.565Z,1008.11
2022-10-13T04:10:00.416Z,1008.10
2022-10-13T04:10:59.525Z,1008.04
2022-10-13T04:12:00.500Z,1008.10
2022-10-13T04:13:00.384Z,1008.09
2022-10-13T04:14:00.290Z,1008.13
2022-10-13T04:15:00.457Z,1008.16
2022-10-13T04:15:59.484Z,1008.10
2022-10-13T04:17:00.985Z,1008.17
2022-10-13T04:18:00.417Z,1008.05
2022-10-13T04:19:00.332Z,1008.07
2022-10-13T04:20:00.224Z,1008.07
2022-10-13T04:21:00.386Z,1008.07
2022-10-13T04:21:59.486Z,1008.07
2022-10-13T04:23:00.392Z,1008.11
2022-10-13T04:24:00.357Z,1008.13
2022-10-13T04:25:00.265Z,1008.04
2022-10-13T04:26:00.412Z,1008.05
2022-10-13T04:27:00.323Z,1008.08
2022-10-13T04:28:00.253Z,1008.09
2022-10-13T04:28:59.403Z,1008.06
2022-10-13T04:29:59.392Z,1008.06
2022-10-13T04:30:59.471Z,1008.07
2022-10-13T04:31:59.416Z,1008.02
2022-10-13T04:33:00.258Z,1008.04
2022-10-13T04:34:00.165Z,1008.01
2022-10-13T04:34:59.843Z,1008.02
2022-10-13T04:36:00.251Z,1007.98
2022-10-13T04:36:59.671Z,1008.03
2022-10-13T04:37:59.328Z,1008.01
2022-10-13T04:39:00.192Z,1007.99
2022-10-13T04:40:00.102Z,1007.96
2022-10-13T04:41:00.263Z,1007.93
2022-10-13T04:42:00.161Z,1007.91
2022-10-13T04:43:00.323Z,1007.91
2022-10-13T04:44:00.227Z,1007.89
2022-10-13T04:45:00.129Z,1007.86
2022-10-13T04:46:00.239Z,1007.91
2022-10-13T04:47:00.189Z,1007.88
2022-10-13T04:48:00.105Z,1007.82
2022-10-13T04:49:00.260Z,1007.75
2022-10-13T04:50:00.161Z,1007.85
2022-10-13T04:51:00.094Z,1007.87
2022-10-13T04:51:59.269Z,1007.84
2022-10-13T04:52:59.959Z,1007.81
2022-10-13T04:53:59.199Z,1007.78
2022-10-13T04:55:00.199Z,1007.76
2022-10-13T04:55:59.367Z,1007.75
2022-10-13T04:56:59.217Z,1007.68
2022-10-13T04:57:59.208Z,1007.68
2022-10-13T04:58:59.239Z,1007.67
2022-10-13T04:59:59.218Z,1007.67
2022-10-13T05:00:59.493Z,1007.64
2022-10-13T05:01:59.176Z,1007.68
2022-10-13T05:02:59.136Z,1007.66
2022-10-13T05:04:00.096Z,1007.60
2022-10-13T05:04:59.226Z,1007.63
2022-10-13T05:05:59.229Z,1007.63
2022-10-13T05:07:17.054Z,1007.61
2022-10-13T05:07:59.247Z,1007.63
2022-10-13T05:08:59.137Z,1007.58
2022-10-13T05:09:59.255Z,1007.58
2022-10-13T05:10:59.936Z,1007.59
2022-10-13T05:11:59.134Z,1007.54
2022-10-13T05:13:00.003Z,1007.59
2022-10-13T05:13:59.113Z,1007.56
2022-10-13T05:14:59.297Z,1007.58
2022-10-13T05:15:59.971Z,1007.54
2022-10-13T05:16:59.874Z,1007.48
2022-10-13T05:17:59.134Z,1007.48
2022-10-13T05:18:59.124Z,1007.53
2022-10-13T05:19:59.036Z,1007.44
2022-10-13T05:21:00.003Z,1007.43
2022-10-13T05:21:59.907Z,1007.40
2022-10-13T05:22:59.811Z,1007.39
2022-10-13T05:23:59.356Z,1007.42
2022-10-13T05:24:59.010Z,1007.43
2022-10-13T05:25:58.994Z,1007.47
2022-10-13T05:26:59.937Z,1007.47
2022-10-13T05:27:59.005Z,1007.45
2022-10-13T05:29:00.006Z,1007.47
2022-10-13T05:29:59.902Z,1007.48
2022-10-13T05:30:59.817Z,1007.56
2022-10-13T05:31:59.972Z,1007.56
2022-10-13T05:32:59.661Z,1007.55
2022-10-13T05:33:59.779Z,1007.51
2022-10-13T05:34:59.941Z,1007.52
2022-10-13T05:35:59.040Z,1007.50
2022-10-13T05:36:59.745Z,1007.56
2022-10-13T05:37:59.054Z,1007.59
2022-10-13T05:38:59.813Z,1007.56
2022-10-13T05:39:58.900Z,1007.53
2022-10-13T05:40:59.079Z,1007.58
2022-10-13T05:41:58.900Z,1007.58
2022-10-13T05:42:59.088Z,1007.55
2022-10-13T05:43:58.870Z,1007.60
2022-10-13T05:44:58.873Z,1007.56
2022-10-13T05:45:58.858Z,1007.53
2022-10-13T05:47:03.654Z,1007.60
2022-10-13T05:47:59.108Z,1007.59
2022-10-13T05:48:58.839Z,1007.60
2022-10-13T05:49:58.831Z,1007.53
2022-10-13T05:50:59.679Z,1007.54
2022-10-13T05:51:58.928Z,1007.58
2022-10-13T05:52:58.938Z,1007.52
2022-10-13T05:53:58.808Z,1007.51
2022-10-13T05:55:00.291Z,1007.50
2022-10-13T05:55:58.830Z,1007.51
2022-10-13T05:56:59.618Z,1007.56
2022-10-13T05:57:58.805Z,1007.54
2022-10-13T05:58:58.790Z,1007.60
2022-10-13T05:59:59.589Z,1007.62
2022-10-13T06:00:58.796Z,1007.61
2022-10-13T06:01:59.719Z,1007.60
2022-10-13T06:02:58.804Z,1007.64
2022-10-13T06:03:58.772Z,1007.63
2022-10-13T06:04:58.786Z,1007.55
2022-10-13T06:05:59.525Z,1007.49
2022-10-13T06:06:59.679Z,1007.54
2022-10-13T06:07:59.585Z,1007.51
2022-10-13T06:08:58.736Z,1007.45
2022-10-13T06:09:59.082Z,1007.51
2022-10-13T06:10:59.558Z,1007.50
2022-10-13T06:11:59.265Z,1007.52
2022-10-13T06:12:58.689Z,1007.48
2022-10-13T06:13:58.695Z,1007.52
2022-10-13T06:14:59.683Z,1007.44
2022-10-13T06:15:59.584Z,1007.46
2022-10-13T06:16:59.484Z,1007.50
2022-10-13T06:17:58.676Z,1007.46
2022-10-13T06:18:59.554Z,1007.47
2022-10-13T06:19:58.715Z,1007.40
2022-10-13T06:20:58.643Z,1007.33
2022-10-13T06:22:02.656Z,1007.40
2022-10-13T06:22:59.436Z,1007.44
2022-10-13T06:23:59.583Z,1007.38
2022-10-13T06:24:58.742Z,1007.36
2022-10-13T06:25:58.943Z,1007.36
2022-10-13T06:26:58.591Z,1007.45
2022-10-13T06:27:58.602Z,1007.41
2022-10-13T06:29:00.009Z,1007.40
2022-10-13T06:29:58.600Z,1007.42
2022-10-13T06:30:58.662Z,1007.40
2022-10-13T06:31:59.541Z,1007.39
2022-10-13T06:32:59.493Z,1007.32
2022-10-13T06:33:58.602Z,1007.24
2022-10-13T06:34:59.552Z,1007.23
2022-10-13T06:35:59.461Z,1007.26
2022-10-13T06:36:59.360Z,1007.31
2022-10-13T06:38:00.002Z,1007.36
2022-10-13T06:38:58.542Z,1007.38
2022-10-13T06:39:58.539Z,1007.44
2022-10-13T06:40:58.544Z,1007.41
2022-10-13T06:41:58.510Z,1007.25
2022-10-13T06:42:59.301Z,1007.22
2022-10-13T06:43:59.949Z,1007.08
2022-10-13T06:44:59.359Z,1007.07
2022-10-13T06:45:59.268Z,1007.19
2022-10-13T06:46:58.491Z,1007.20
2022-10-13T06:47:59.331Z,1007.25
2022-10-13T06:48:59.236Z,1007.36
2022-10-13T06:49:58.478Z,1007.36
2022-10-13T06:50:58.529Z,1007.33
2022-10-13T06:51:59.461Z,1007.37
2022-10-13T06:52:58.439Z,1007.28
2022-10-13T06:53:59.269Z,1007.28
2022-10-13T06:54:59.432Z,1007.33
2022-10-13T06:55:58.474Z,1007.26
2022-10-13T06:56:58.607Z,1007.28
2022-10-13T06:57:59.395Z,1007.31
2022-10-13T06:58:58.426Z,1007.31
2022-10-13T06:59:59.197Z,1007.25
2022-10-13T07:00:58.809Z,1007.26
2022-10-13T07:01:59.324Z,1007.24
2022-10-13T07:02:58.400Z,1007.20
2022-10-13T07:03:58.406Z,1007.13
2022-10-13T07:04:59.235Z,1007.13
2022-10-13T07:05:59.138Z,1007.14
2022-10-13T07:06:58.394Z,1007.07
2022-10-13T07:07:58.406Z,1007.04
2022-10-13T07:08:58.325Z,1006.96
2022-10-13T07:09:58.324Z,1007.05
2022-10-13T07:10:58.456Z,1007.03
2022-10-13T07:11:59.074Z,1006.94
2022-10-13T07:12:59.244Z,1006.85
2022-10-13T07:13:59.163Z,1006.77
2022-10-13T07:14:58.285Z,1006.89
2022-10-13T07:15:59.203Z,1006.88
2022-10-13T07:16:58.274Z,1006.92
2022-10-13T07:17:58.289Z,1006.91
2022-10-13T07:18:59.165Z,1006.90
2022-10-13T07:19:58.676Z,1006.97
2022-10-13T07:20:59.713Z,1007.02
2022-10-13T07:21:59.134Z,1007.00
2022-10-13T07:22:58.236Z,1006.99
2022-10-13T07:23:58.242Z,1006.96
2022-10-13T07:24:58.213Z,1007.02
2022-10-13T07:25:59.011Z,1007.01
2022-10-13T07:27:00.910Z,1007.04
2022-10-13T07:27:59.080Z,1007.08
2022-10-13T07:28:58.696Z,1007.08
2022-10-13T07:29:59.134Z,1007.09
2022-10-13T07:30:58.175Z,1007.08
2022-10-13T07:31:58.198Z,1007.10
2022-10-13T07:32:58.158Z,1007.09
2022-10-13T07:33:58.152Z,1007.01
2022-10-13T07:34:58.162Z,1006.97
2022-10-13T07:35:59.073Z,1006.97
2022-10-13T07:36:58.185Z,1006.91
2022-10-13T07:37:59.139Z,1006.95
2022-10-13T07:38:59.042Z,1006.91
2022-10-13T07:39:58.942Z,1006.92
2022-10-13T07:40:58.119Z,1006.97
2022-10-13T07:41:59.029Z,1007.00
2022-10-13T07:42:58.913Z,1007.02
2022-10-13T07:43:58.105Z,1007.01
2022-10-13T07:44:58.981Z,1007.04
2022-10-13T07:45:58.880Z,1007.03
2022-10-13T07:46:58.080Z,1007.06
2022-10-13T07:47:58.950Z,1007.05
2022-10-13T07:48:58.849Z,1007.08
2022-10-13T07:49:59.009Z,1007.11
2022-10-13T07:50:59.498Z,1007.12
2022-10-13T07:51:58.824Z,1007.13
2022-10-13T07:52:59.021Z,1007.16
2022-10-13T07:53:58.038Z,1007.13
2022-10-13T07:54:58.012Z,1007.13
2022-10-13T07:55:58.946Z,1007.13
2022-10-13T07:56:59.451Z,1007.11
2022-10-13T07:57:59.007Z,1007.04
2022-10-13T07:58:58.915Z,1007.04
2022-10-13T07:59:58.817Z,1007.11
2022-10-13T08:00:59.507Z,1007.09
2022-10-13T08:01:58.417Z,1007.09
2022-10-13T08:02:58.834Z,1007.14
2022-10-13T08:03:58.947Z,1007.06
2022-10-13T08:04:58.847Z,1007.07
2022-10-13T08:05:58.753Z,1007.06
2022-10-13T08:06:58.916Z,1007.02
2022-10-13T08:07:58.837Z,1007.07
2022-10-13T08:08:59.346Z,1007.12
2022-10-13T08:09:58.876Z,1007.11
2022-10-13T08:10:58.789Z,1007.05
2022-10-13T08:12:00.859Z,1007.03
2022-10-13T08:12:57.907Z,1007.07
2022-10-13T08:13:57.866Z,1007.12
2022-10-13T08:14:59.417Z,1007.10
2022-10-13T08:16:58.648Z,1007.10
2022-10-13T08:17:58.656Z,1007.03
2022-10-13T08:18:57.834Z,1007.00
2022-10-13T08:19:57.863Z,1007.01
2022-10-13T08:21:23.960Z,1007.01
2022-10-13T08:22:00.138Z,1007.02
2022-10-13T08:22:58.670Z,1007.13
2022-10-13T08:23:57.816Z,1007.10
2022-10-13T08:24:57.824Z,1007.04
2022-10-13T08:25:58.624Z,1007.03
2022-10-13T08:26:58.786Z,1007.01
2022-10-13T08:28:00.552Z,1007.03
2022-10-13T08:29:16.751Z,1007.03
2022-10-13T08:29:58.755Z,1007.07
2022-10-13T08:30:57.897Z,1007.06
2022-10-13T08:31:57.765Z,1007.03
2022-10-13T08:32:58.724Z,1007.07
2022-10-13T08:33:58.383Z,1007.07
2022-10-13T08:34:58.534Z,1007.04
2022-10-13T08:35:58.497Z,1007.06
2022-10-13T08:36:58.601Z,1007.07
2022-10-13T08:37:57.735Z,1007.08
2022-10-13T08:38:57.713Z,1007.03
2022-10-13T08:39:57.712Z,1007.05
2022-10-13T08:40:58.722Z,1007.05
2022-10-13T08:41:57.732Z,1007.06
2022-10-13T08:43:00.339Z,1007.01
2022-10-13T08:44:41.008Z,1006.98
2022-10-13T08:45:57.664Z,1006.98
2022-10-13T08:46:57.663Z,1007.00
2022-10-13T08:47:58.562Z,1007.02
2022-10-13T08:48:58.462Z,1007.01
2022-10-13T08:50:00.700Z,1007.01
2022-10-13T08:50:58.533Z,1006.99
2022-10-13T08:51:58.436Z,1007.00
2022-10-13T08:52:58.593Z,1006.97
2022-10-13T08:53:57.621Z,1006.97
2022-10-13T08:54:58.496Z,1006.96
2022-10-13T08:55:57.581Z,1006.97
2022-10-13T08:56:57.657Z,1007.00
2022-10-13T08:57:58.370Z,1006.95
2022-10-13T08:58:58.537Z,1007.00
2022-10-13T08:59:58.437Z,1006.97
2022-10-13T09:00:57.552Z,1006.91
2022-10-13T09:01:57.650Z,1006.92
2022-10-13T09:02:58.405Z,1006.93
2022-10-13T09:03:57.562Z,1006.88
2022-10-13T09:04:57.546Z,1006.93
2022-10-13T09:05:58.388Z,1006.89
2022-10-13T09:06:58.529Z,1006.87
2022-10-13T09:07:57.515Z,1006.91
2022-10-13T09:08:58.345Z,1006.92
2022-10-13T09:09:57.520Z,1006.88
2022-10-13T09:10:57.495Z,1006.93
2022-10-13T09:11:57.849Z,1006.96
2022-10-13T09:12:57.749Z,1007.01
2022-10-13T09:13:58.369Z,1007.04
2022-10-13T09:14:58.278Z,1007.00
2022-10-13T09:15:57.469Z,1006.99
2022-10-13T09:16:57.461Z,1006.99
2022-10-13T09:17:57.460Z,1006.99
2022-10-13T09:18:57.439Z,1007.04
2022-10-13T09:19:57.425Z,1007.05
2022-10-13T09:20:58.209Z,1007.02
2022-10-13T09:21:58.370Z,1006.96
2022-10-13T09:22:58.268Z,1007.03
2022-10-13T09:23:57.450Z,1006.93
2022-10-13T09:24:57.447Z,1006.91
2022-10-13T09:25:57.526Z,1006.94
2022-10-13T09:26:57.459Z,1006.93
2022-10-13T09:27:57.541Z,1006.89
2022-10-13T09:28:57.402Z,1006.91
2022-10-13T09:29:57.349Z,1006.90
2022-10-13T09:30:57.350Z,1006.94
2022-10-13T09:31:57.495Z,1006.99
2022-10-13T09:32:57.498Z,1006.96
2022-10-13T09:33:57.381Z,1006.98
2022-10-13T09:34:57.342Z,1006.87
2022-10-13T09:35:58.311Z,1006.92
2022-10-13T09:36:57.407Z,1006.91
2022-10-13T09:37:57.327Z,1006.89
2022-10-13T09:38:57.547Z,1006.87
2022-10-13T09:39:57.547Z,1006.86
2022-10-13T09:40:57.547Z,1006.84
2022-10-13T09:41:58.236Z,1006.82
2022-10-13T09:42:57.637Z,1006.86
2022-10-13T09:43:57.258Z,1006.87
2022-10-13T09:44:58.288Z,1006.86
2022-10-13T09:45:57.254Z,1006.74
2022-10-13T09:46:58.275Z,1006.86
2022-10-13T09:47:57.236Z,1006.82
2022-10-13T09:48:57.228Z,1006.81
2022-10-13T09:50:00.927Z,1006.81
2022-10-13T09:50:57.228Z,1006.82
2022-10-13T09:51:57.199Z,1006.77
2022-10-13T09:52:57.198Z,1006.81
2022-10-13T09:53:57.323Z,1006.77
2022-10-13T09:54:57.226Z,1006.69
2022-10-13T09:55:58.177Z,1006.74
2022-10-13T09:56:57.170Z,1006.76
2022-10-13T09:57:57.154Z,1006.72
2022-10-13T09:58:57.165Z,1006.74
2022-10-13T09:59:57.342Z,1006.73
2022-10-13T10:00:57.137Z,1006.63
2022-10-13T10:01:58.121Z,1006.61
2022-10-13T10:02:58.018Z,1006.66
2022-10-13T10:03:57.405Z,1006.61
2022-10-13T10:04:57.376Z,1006.54
2022-10-13T10:05:57.419Z,1006.57
2022-10-13T10:06:57.086Z,1006.58
2022-10-13T10:07:57.406Z,1006.53
2022-10-13T10:09:03.364Z,1006.53
2022-10-13T10:09:57.471Z,1006.57
2022-10-13T10:10:57.124Z,1006.48
2022-10-13T10:11:57.922Z,1006.46
2022-10-13T10:12:58.088Z,1006.51
2022-10-13T10:13:58.540Z,1006.49
2022-10-13T10:14:57.097Z,1006.43
2022-10-13T10:15:57.054Z,1006.41
2022-10-13T10:16:57.953Z,1006.37
2022-10-13T10:17:57.856Z,1006.36
2022-10-13T10:18:58.878Z,1006.34
2022-10-13T10:19:57.397Z,1006.35
2022-10-13T10:20:57.048Z,1006.31
2022-10-13T10:21:57.984Z,1006.32
2022-10-13T10:22:57.885Z,1006.28
2022-10-13T10:23:57.075Z,1006.29
2022-10-13T10:24:57.010Z,1006.30
2022-10-13T10:25:58.443Z,1006.28
2022-10-13T10:26:56.971Z,1006.23
2022-10-13T10:27:57.016Z,1006.28
2022-10-13T10:28:57.694Z,1006.21
2022-10-13T10:29:57.669Z,1006.21
2022-10-13T10:30:56.935Z,1006.25
2022-10-13T10:31:57.683Z,1006.26
2022-10-13T10:32:57.683Z,1006.18
2022-10-13T10:33:57.784Z,1006.17
2022-10-13T10:34:56.912Z,1006.24
2022-10-13T10:35:56.954Z,1006.21
2022-10-13T10:36:56.913Z,1006.21
2022-10-13T10:37:58.354Z,1006.18
2022-10-13T10:38:58.353Z,1006.18
2022-10-13T10:39:57.823Z,1006.21
2022-10-13T10:40:57.723Z,1006.15
2022-10-13T10:41:56.860Z,1006.16
2022-10-13T10:42:57.788Z,1006.11
2022-10-13T10:43:57.858Z,1006.11
2022-10-13T10:44:57.355Z,1006.16
2022-10-13T10:45:56.852Z,1006.14
2022-10-13T10:46:57.878Z,1006.15
2022-10-13T10:47:57.814Z,1006.00
2022-10-13T10:48:56.843Z,1006.09
2022-10-13T10:49:56.823Z,1006.12
2022-10-13T10:50:56.871Z,1006.08
2022-10-13T10:51:56.830Z,1006.17
2022-10-13T10:52:56.994Z,1006.09
2022-10-13T10:53:57.003Z,1006.05
2022-10-13T10:54:56.812Z,1006.04
2022-10-13T10:55:56.782Z,1006.00
2022-10-13T10:56:56.822Z,1006.08
2022-10-13T10:57:56.830Z,1006.02
2022-10-13T10:58:57.242Z,1006.01
2022-10-13T10:59:56.742Z,1005.99
2022-10-13T11:00:56.742Z,1005.94
2022-10-13T11:01:57.734Z,1005.94
2022-10-13T11:02:56.770Z,1006.00
2022-10-13T11:03:57.533Z,1005.93
2022-10-13T11:04:56.740Z,1005.96
2022-10-13T11:05:57.601Z,1005.91
2022-10-13T11:06:56.719Z,1005.82
2022-10-13T11:07:56.893Z,1005.88
2022-10-13T11:08:56.690Z,1005.84
2022-10-13T11:09:56.662Z,1005.80
2022-10-13T11:10:56.670Z,1005.77
2022-10-13T11:11:56.651Z,1005.77
2022-10-13T11:12:56.670Z,1005.77
2022-10-13T11:13:56.692Z,1005.72
2022-10-13T11:14:56.704Z,1005.67
2022-10-13T11:15:57.049Z,1005.65
2022-10-13T11:16:57.569Z,1005.68
2022-10-13T11:17:56.645Z,1005.71
2022-10-13T11:18:57.060Z,1005.74
2022-10-13T11:19:56.655Z,1005.62
2022-10-13T11:20:56.591Z,1005.64
2022-10-13T11:21:56.632Z,1005.57
2022-10-13T11:22:56.593Z,1005.62
2022-10-13T11:24:01.770Z,1005.57
2022-10-13T11:24:56.599Z,1005.65
2022-10-13T11:25:57.470Z,1005.61
2022-10-13T11:26:56.597Z,1005.65
2022-10-13T11:27:56.702Z,1005.60
2022-10-13T11:28:56.570Z,1005.58
2022-10-13T11:29:56.805Z,1005.54
2022-10-13T11:30:56.530Z,1005.57
2022-10-13T11:31:56.519Z,1005.51
2022-10-13T11:32:56.520Z,1005.53
2022-10-13T11:33:56.512Z,1005.53
2022-10-13T11:34:56.519Z,1005.53
2022-10-13T11:35:56.978Z,1005.55
2022-10-13T11:36:57.022Z,1005.51
2022-10-13T11:38:06.686Z,1005.57
2022-10-13T11:38:57.200Z,1005.50
2022-10-13T11:39:57.209Z,1005.52
2022-10-13T11:40:56.464Z,1005.48
2022-10-13T11:41:57.473Z,1005.46
2022-10-13T11:42:58.488Z,1005.43
2022-10-13T11:43:56.447Z,1005.45
2022-10-13T11:44:56.460Z,1005.40
2022-10-13T11:45:57.348Z,1005.35
2022-10-13T11:46:56.449Z,1005.41
2022-10-13T11:47:56.470Z,1005.38
2022-10-13T11:48:56.431Z,1005.38
2022-10-13T11:49:56.409Z,1005.30
2022-10-13T11:50:56.397Z,1005.29
2022-10-13T11:51:56.384Z,1005.34
2022-10-13T11:52:56.380Z,1005.28
2022-10-13T11:53:56.483Z,1005.32
2022-10-13T11:54:56.379Z,1005.28
2022-10-13T11:55:56.492Z,1005.23
2022-10-13T11:56:56.351Z,1005.27
2022-10-13T11:57:56.339Z,1005.27
2022-10-13T11:58:56.340Z,1005.19
2022-10-13T11:59:56.518Z,1005.24
2022-10-13T12:00:56.531Z,1005.18
2022-10-13T12:01:56.329Z,1005.16
2022-10-13T12:02:56.386Z,1005.20
2022-10-13T12:03:56.298Z,1005.14
2022-10-13T12:04:56.373Z,1005.19
2022-10-13T12:05:56.308Z,1005.19
2022-10-13T12:06:57.122Z,1005.19
2022-10-13T12:07:56.310Z,1005.10
2022-10-13T12:08:56.268Z,1005.17